sensor_id;sensor_type;location;lat;lon;timestamp;P1;durP1;ratioP1;P2;durP2;ratioP2
52974;SDS011;38839;45.186;5.720;2022-09-28T00:01:41;2.83;;;1.20;;
52974;SDS011;38839;45.186;5.720;2022-09-28T00:04:08;2.30;;;0.93;;
52974;SDS011;38839;45.186;5.720;2022-09-28T00:06:33;1.60;;;1.10;;
52974;SDS011;38839;45.186;5.720;2022-09-28T00:08:59;2.30;;;1.20;;
52974;SDS011;38839;45.186;5.720;2022-09-28T00:11:25;1.88;;;1.05;;
52974;SDS011;38839;45.186;5.720;2022-09-28T00:13:52;2.95;;;0.93;;
52974;SDS011;38839;45.186;5.720;2022-09-28T00:16:21;2.75;;;0.88;;
52974;SDS011;38839;45.186;5.720;2022-09-28T00:18:49;2.83;;;1.20;;
52974;SDS011;38839;45.186;5.720;2022-09-28T00:21:16;2.63;;;1.00;;
52974;SDS011;38839;45.186;5.720;2022-09-28T00:23:43;3.38;;;1.00;;
52974;SDS011;38839;45.186;5.720;2022-09-28T00:26:28;4.78;;;1.00;;
52974;SDS011;38839;45.186;5.720;2022-09-28T00:28:57;2.65;;;1.02;;
52974;SDS011;38839;45.186;5.720;2022-09-28T00:31:24;2.60;;;1.10;;
52974;SDS011;38839;45.186;5.720;2022-09-28T00:33:51;1.65;;;1.00;;
52974;SDS011;38839;45.186;5.720;2022-09-28T00:36:17;2.50;;;1.27;;
52974;SDS011;38839;45.186;5.720;2022-09-28T00:38:43;4.20;;;1.00;;
52974;SDS011;38839;45.186;5.720;2022-09-28T00:41:11;2.70;;;1.00;;
52974;SDS011;38839;45.186;5.720;2022-09-28T00:43:37;4.00;;;1.00;;
52974;SDS011;38839;45.186;5.720;2022-09-28T00:46:11;2.70;;;1.15;;
52974;SDS011;38839;45.186;5.720;2022-09-28T00:48:47;2.65;;;1.00;;
52974;SDS011;38839;45.186;5.720;2022-09-28T00:51:22;3.95;;;1.00;;
52974;SDS011;38839;45.186;5.720;2022-09-28T00:53:50;1.17;;;0.90;;
52974;SDS011;38839;45.186;5.720;2022-09-28T00:56:17;3.33;;;1.00;;
52974;SDS011;38839;45.186;5.720;2022-09-28T00:58:46;1.77;;;1.02;;
52974;SDS011;38839;45.186;5.720;2022-09-28T01:01:14;4.72;;;1.02;;
52974;SDS011;38839;45.186;5.720;2022-09-28T01:03:40;2.03;;;1.13;;
52974;SDS011;38839;45.186;5.720;2022-09-28T01:06:09;3.10;;;1.00;;
52974;SDS011;38839;45.186;5.720;2022-09-28T01:08:39;2.67;;;1.00;;
52974;SDS011;38839;45.186;5.720;2022-09-28T01:11:05;1.35;;;0.98;;
52974;SDS011;38839;45.186;5.720;2022-09-28T01:13:31;2.38;;;1.00;;
52974;SDS011;38839;45.186;5.720;2022-09-28T01:16:06;2.83;;;0.70;;
52974;SDS011;38839;45.186;5.720;2022-09-28T01:21:28;2.28;;;0.77;;
52974;SDS011;38839;45.186;5.720;2022-09-28T01:32:30;2.28;;;0.80;;
52974;SDS011;38839;45.186;5.720;2022-09-28T01:37:40;2.92;;;0.77;;
52974;SDS011;38839;45.186;5.720;2022-09-28T01:40:11;1.40;;;0.35;;
52974;SDS011;38839;45.186;5.720;2022-09-28T01:42:40;2.97;;;0.90;;
52974;SDS011;38839;45.186;5.720;2022-09-28T01:45:11;1.90;;;0.60;;
52974;SDS011;38839;45.186;5.720;2022-09-28T01:47:42;1.75;;;0.50;;
52974;SDS011;38839;45.186;5.720;2022-09-28T01:50:15;2.92;;;0.57;;
52974;SDS011;38839;45.186;5.720;2022-09-28T01:55:23;1.02;;;0.47;;
52974;SDS011;38839;45.186;5.720;2022-09-28T01:57:54;2.13;;;0.70;;
52974;SDS011;38839;45.186;5.720;2022-09-28T02:00:21;2.15;;;0.47;;
52974;SDS011;38839;45.186;5.720;2022-09-28T02:05:31;1.65;;;0.82;;
52974;SDS011;38839;45.186;5.720;2022-09-28T02:10:43;0.90;;;0.50;;
52974;SDS011;38839;45.186;5.720;2022-09-28T02:15:57;1.63;;;0.43;;
52974;SDS011;38839;45.186;5.720;2022-09-28T02:18:30;2.17;;;0.52;;
52974;SDS011;38839;45.186;5.720;2022-09-28T02:20:59;1.13;;;0.50;;
52974;SDS011;38839;45.186;5.720;2022-09-28T02:23:30;0.52;;;0.40;;
52974;SDS011;38839;45.186;5.720;2022-09-28T02:26:02;1.40;;;0.40;;
52974;SDS011;38839;45.186;5.720;2022-09-28T02:28:33;1.33;;;0.43;;
52974;SDS011;38839;45.186;5.720;2022-09-28T02:30:59;0.95;;;0.70;;
52974;SDS011;38839;45.186;5.720;2022-09-28T02:33:35;1.30;;;0.45;;
52974;SDS011;38839;45.186;5.720;2022-09-28T02:36:02;1.00;;;0.40;;
52974;SDS011;38839;45.186;5.720;2022-09-28T02:38:29;1.77;;;0.32;;
52974;SDS011;38839;45.186;5.720;2022-09-28T02:55:05;0.93;;;0.43;;
52974;SDS011;38839;45.186;5.720;2022-09-28T03:00:17;0.85;;;0.40;;
52974;SDS011;38839;45.186;5.720;2022-09-28T03:11:33;3.13;;;0.50;;
52974;SDS011;38839;45.186;5.720;2022-09-28T03:14:03;0.93;;;0.38;;
52974;SDS011;38839;45.186;5.720;2022-09-28T03:16:29;2.40;;;0.60;;
52974;SDS011;38839;45.186;5.720;2022-09-28T03:18:56;2.28;;;0.50;;
52974;SDS011;38839;45.186;5.720;2022-09-28T03:21:21;1.55;;;0.50;;
52974;SDS011;38839;45.186;5.720;2022-09-28T03:23:47;0.90;;;0.50;;
52974;SDS011;38839;45.186;5.720;2022-09-28T03:26:13;2.38;;;0.50;;
52974;SDS011;38839;45.186;5.720;2022-09-28T03:28:38;1.73;;;0.70;;
52974;SDS011;38839;45.186;5.720;2022-09-28T03:31:04;1.98;;;0.80;;
52974;SDS011;38839;45.186;5.720;2022-09-28T03:33:30;1.20;;;0.40;;
52974;SDS011;38839;45.186;5.720;2022-09-28T03:35:55;2.38;;;0.47;;
52974;SDS011;38839;45.186;5.720;2022-09-28T03:38:21;1.65;;;0.52;;
52974;SDS011;38839;45.186;5.720;2022-09-28T03:40:56;2.05;;;0.50;;
52974;SDS011;38839;45.186;5.720;2022-09-28T03:43:23;1.05;;;0.40;;
52974;SDS011;38839;45.186;5.720;2022-09-28T03:45:53;2.42;;;0.47;;
52974;SDS011;38839;45.186;5.720;2022-09-28T03:48:24;1.60;;;0.65;;
52974;SDS011;38839;45.186;5.720;2022-09-28T03:50:52;3.22;;;0.50;;
52974;SDS011;38839;45.186;5.720;2022-09-28T03:53:18;2.17;;;0.45;;
52974;SDS011;38839;45.186;5.720;2022-09-28T03:55:44;0.68;;;0.35;;
52974;SDS011;38839;45.186;5.720;2022-09-28T03:58:10;0.63;;;0.35;;
52974;SDS011;38839;45.186;5.720;2022-09-28T04:00:36;0.90;;;0.40;;
52974;SDS011;38839;45.186;5.720;2022-09-28T04:03:02;0.75;;;0.50;;
52974;SDS011;38839;45.186;5.720;2022-09-28T04:05:28;1.83;;;0.60;;
52974;SDS011;38839;45.186;5.720;2022-09-28T04:07:53;1.27;;;0.40;;
52974;SDS011;38839;45.186;5.720;2022-09-28T04:10:22;1.27;;;0.55;;
52974;SDS011;38839;45.186;5.720;2022-09-28T04:12:48;3.08;;;0.70;;
52974;SDS011;38839;45.186;5.720;2022-09-28T04:15:15;3.50;;;0.60;;
52974;SDS011;38839;45.186;5.720;2022-09-28T04:17:41;1.38;;;0.43;;
52974;SDS011;38839;45.186;5.720;2022-09-28T04:20:06;1.17;;;0.45;;
52974;SDS011;38839;45.186;5.720;2022-09-28T04:22:33;0.93;;;0.30;;
52974;SDS011;38839;45.186;5.720;2022-09-28T04:24:58;2.03;;;0.82;;
52974;SDS011;38839;45.186;5.720;2022-09-28T04:27:24;1.33;;;0.68;;
52974;SDS011;38839;45.186;5.720;2022-09-28T04:30:08;2.88;;;0.60;;
52974;SDS011;38839;45.186;5.720;2022-09-28T04:32:34;1.73;;;0.57;;
52974;SDS011;38839;45.186;5.720;2022-09-28T04:34:59;1.45;;;0.60;;
52974;SDS011;38839;45.186;5.720;2022-09-28T04:37:25;1.80;;;0.60;;
52974;SDS011;38839;45.186;5.720;2022-09-28T04:39:50;1.83;;;0.43;;
52974;SDS011;38839;45.186;5.720;2022-09-28T04:42:15;1.88;;;0.68;;
52974;SDS011;38839;45.186;5.720;2022-09-28T04:44:41;1.65;;;0.50;;
52974;SDS011;38839;45.186;5.720;2022-09-28T04:47:06;1.73;;;0.57;;
52974;SDS011;38839;45.186;5.720;2022-09-28T04:49:32;1.02;;;0.70;;
52974;SDS011;38839;45.186;5.720;2022-09-28T04:51:59;3.05;;;0.77;;
52974;SDS011;38839;45.186;5.720;2022-09-28T04:54:25;2.47;;;0.82;;
52974;SDS011;38839;45.186;5.720;2022-09-28T04:56:50;0.60;;;0.52;;
52974;SDS011;38839;45.186;5.720;2022-09-28T04:59:16;3.08;;;0.50;;
52974;SDS011;38839;45.186;5.720;2022-09-28T05:01:42;2.03;;;0.85;;
52974;SDS011;38839;45.186;5.720;2022-09-28T05:04:07;1.48;;;0.60;;
52974;SDS011;38839;45.186;5.720;2022-09-28T05:06:33;2.05;;;0.98;;
52974;SDS011;38839;45.186;5.720;2022-09-28T05:08:58;1.83;;;0.70;;
52974;SDS011;38839;45.186;5.720;2022-09-28T05:11:24;1.75;;;0.73;;
52974;SDS011;38839;45.186;5.720;2022-09-28T05:13:49;1.65;;;0.68;;
52974;SDS011;38839;45.186;5.720;2022-09-28T05:16:15;1.00;;;0.68;;
52974;SDS011;38839;45.186;5.720;2022-09-28T05:18:41;0.82;;;0.80;;
52974;SDS011;38839;45.186;5.720;2022-09-28T05:21:10;1.73;;;0.90;;
52974;SDS011;38839;45.186;5.720;2022-09-28T05:23:37;0.98;;;0.60;;
52974;SDS011;38839;45.186;5.720;2022-09-28T05:26:03;2.53;;;0.70;;
52974;SDS011;38839;45.186;5.720;2022-09-28T05:28:29;1.63;;;1.02;;
52974;SDS011;38839;45.186;5.720;2022-09-28T05:31:02;1.80;;;0.82;;
52974;SDS011;38839;45.186;5.720;2022-09-28T05:33:29;3.92;;;0.90;;
52974;SDS011;38839;45.186;5.720;2022-09-28T05:35:55;1.02;;;0.70;;
52974;SDS011;38839;45.186;5.720;2022-09-28T05:38:21;1.48;;;0.90;;
52974;SDS011;38839;45.186;5.720;2022-09-28T05:40:46;1.15;;;0.70;;
52974;SDS011;38839;45.186;5.720;2022-09-28T05:43:12;4.95;;;1.38;;
52974;SDS011;38839;45.186;5.720;2022-09-28T05:45:37;4.72;;;1.10;;
52974;SDS011;38839;45.186;5.720;2022-09-28T05:48:02;1.65;;;0.90;;
52974;SDS011;38839;45.186;5.720;2022-09-28T05:50:28;0.88;;;0.55;;
52974;SDS011;38839;45.186;5.720;2022-09-28T05:52:57;3.00;;;0.80;;
52974;SDS011;38839;45.186;5.720;2022-09-28T05:55:28;2.35;;;1.00;;
52974;SDS011;38839;45.186;5.720;2022-09-28T05:57:56;2.78;;;0.75;;
52974;SDS011;38839;45.186;5.720;2022-09-28T06:00:29;1.92;;;0.70;;
52974;SDS011;38839;45.186;5.720;2022-09-28T06:03:00;2.08;;;0.93;;
52974;SDS011;38839;45.186;5.720;2022-09-28T06:05:26;1.88;;;0.80;;
52974;SDS011;38839;45.186;5.720;2022-09-28T06:07:56;1.85;;;0.70;;
52974;SDS011;38839;45.186;5.720;2022-09-28T06:12:52;1.88;;;1.02;;
52974;SDS011;38839;45.186;5.720;2022-09-28T06:15:19;2.35;;;0.77;;
52974;SDS011;38839;45.186;5.720;2022-09-28T06:17:45;2.65;;;0.60;;
52974;SDS011;38839;45.186;5.720;2022-09-28T06:20:11;2.33;;;0.73;;
52974;SDS011;38839;45.186;5.720;2022-09-28T06:22:37;1.67;;;0.70;;
52974;SDS011;38839;45.186;5.720;2022-09-28T06:25:03;1.88;;;0.82;;
52974;SDS011;38839;45.186;5.720;2022-09-28T06:27:29;4.53;;;0.88;;
52974;SDS011;38839;45.186;5.720;2022-09-28T06:29:54;1.42;;;0.90;;
52974;SDS011;38839;45.186;5.720;2022-09-28T06:32:20;1.67;;;0.88;;
52974;SDS011;38839;45.186;5.720;2022-09-28T06:34:45;1.48;;;0.73;;
52974;SDS011;38839;45.186;5.720;2022-09-28T06:37:11;1.98;;;0.73;;
52974;SDS011;38839;45.186;5.720;2022-09-28T06:39:36;2.78;;;0.70;;
52974;SDS011;38839;45.186;5.720;2022-09-28T06:42:01;0.90;;;0.70;;
52974;SDS011;38839;45.186;5.720;2022-09-28T06:44:28;0.73;;;0.60;;
52974;SDS011;38839;45.186;5.720;2022-09-28T06:46:54;2.42;;;1.08;;
52974;SDS011;38839;45.186;5.720;2022-09-28T06:49:20;1.42;;;0.77;;
52974;SDS011;38839;45.186;5.720;2022-09-28T06:51:46;1.27;;;0.80;;
52974;SDS011;38839;45.186;5.720;2022-09-28T06:54:12;3.67;;;0.98;;
52974;SDS011;38839;45.186;5.720;2022-09-28T06:56:38;2.80;;;0.80;;
52974;SDS011;38839;45.186;5.720;2022-09-28T06:59:03;1.60;;;1.00;;
52974;SDS011;38839;45.186;5.720;2022-09-28T07:01:29;1.90;;;1.10;;
52974;SDS011;38839;45.186;5.720;2022-09-28T07:03:54;2.17;;;0.98;;
52974;SDS011;38839;45.186;5.720;2022-09-28T07:06:20;2.92;;;0.88;;
52974;SDS011;38839;45.186;5.720;2022-09-28T07:08:48;2.30;;;1.08;;
52974;SDS011;38839;45.186;5.720;2022-09-28T07:11:14;1.45;;;0.70;;
52974;SDS011;38839;45.186;5.720;2022-09-28T07:13:40;4.30;;;0.93;;
52974;SDS011;38839;45.186;5.720;2022-09-28T07:16:06;1.83;;;1.00;;
52974;SDS011;38839;45.186;5.720;2022-09-28T07:18:31;1.48;;;0.82;;
52974;SDS011;38839;45.186;5.720;2022-09-28T07:20:57;2.92;;;0.82;;
52974;SDS011;38839;45.186;5.720;2022-09-28T07:23:26;4.22;;;1.23;;
52974;SDS011;38839;45.186;5.720;2022-09-28T07:25:53;4.53;;;1.00;;
52974;SDS011;38839;45.186;5.720;2022-09-28T07:28:19;2.72;;;1.00;;
52974;SDS011;38839;45.186;5.720;2022-09-28T07:30:45;2.50;;;1.00;;
52974;SDS011;38839;45.186;5.720;2022-09-28T07:33:12;2.35;;;1.00;;
52974;SDS011;38839;45.186;5.720;2022-09-28T07:35:39;1.73;;;1.00;;
52974;SDS011;38839;45.186;5.720;2022-09-28T07:38:06;4.03;;;1.35;;
52974;SDS011;38839;45.186;5.720;2022-09-28T07:40:33;1.15;;;0.90;;
52974;SDS011;38839;45.186;5.720;2022-09-28T07:43:18;2.80;;;0.90;;
52974;SDS011;38839;45.186;5.720;2022-09-28T07:45:45;1.85;;;0.80;;
52974;SDS011;38839;45.186;5.720;2022-09-28T07:48:15;3.65;;;1.10;;
52974;SDS011;38839;45.186;5.720;2022-09-28T07:50:42;4.78;;;1.23;;
52974;SDS011;38839;45.186;5.720;2022-09-28T07:53:22;1.50;;;0.95;;
52974;SDS011;38839;45.186;5.720;2022-09-28T07:56:07;1.52;;;1.00;;
52974;SDS011;38839;45.186;5.720;2022-09-28T07:58:36;1.85;;;0.90;;
52974;SDS011;38839;45.186;5.720;2022-09-28T08:01:07;2.97;;;0.80;;
52974;SDS011;38839;45.186;5.720;2022-09-28T08:03:34;1.80;;;0.50;;
52974;SDS011;38839;45.186;5.720;2022-09-28T08:06:02;1.67;;;0.60;;
52974;SDS011;38839;45.186;5.720;2022-09-28T08:08:29;1.10;;;0.70;;
52974;SDS011;38839;45.186;5.720;2022-09-28T08:10:57;2.30;;;0.77;;
52974;SDS011;38839;45.186;5.720;2022-09-28T08:13:23;3.13;;;0.75;;
52974;SDS011;38839;45.186;5.720;2022-09-28T08:15:50;2.97;;;0.80;;
52974;SDS011;38839;45.186;5.720;2022-09-28T08:18:16;0.82;;;0.68;;
52974;SDS011;38839;45.186;5.720;2022-09-28T08:20:42;2.67;;;0.98;;
52974;SDS011;38839;45.186;5.720;2022-09-28T08:23:26;1.05;;;0.80;;
52974;SDS011;38839;45.186;5.720;2022-09-28T08:25:53;1.10;;;0.80;;
52974;SDS011;38839;45.186;5.720;2022-09-28T08:28:19;2.03;;;0.75;;
52974;SDS011;38839;45.186;5.720;2022-09-28T08:30:46;4.20;;;1.10;;
52974;SDS011;38839;45.186;5.720;2022-09-28T08:33:13;2.15;;;0.88;;
52974;SDS011;38839;45.186;5.720;2022-09-28T08:35:40;2.38;;;0.88;;
52974;SDS011;38839;45.186;5.720;2022-09-28T08:38:06;2.42;;;1.20;;
52974;SDS011;38839;45.186;5.720;2022-09-28T08:40:34;2.10;;;0.85;;
52974;SDS011;38839;45.186;5.720;2022-09-28T08:43:17;1.40;;;0.90;;
52974;SDS011;38839;45.186;5.720;2022-09-28T08:46:04;2.20;;;0.93;;
52974;SDS011;38839;45.186;5.720;2022-09-28T08:48:35;1.98;;;0.90;;
52974;SDS011;38839;45.186;5.720;2022-09-28T08:51:18;1.48;;;0.93;;
52974;SDS011;38839;45.186;5.720;2022-09-28T08:53:52;2.45;;;1.00;;
52974;SDS011;38839;45.186;5.720;2022-09-28T08:56:26;2.58;;;0.90;;
52974;SDS011;38839;45.186;5.720;2022-09-28T08:58:57;1.38;;;0.88;;
52974;SDS011;38839;45.186;5.720;2022-09-28T09:01:31;1.40;;;0.90;;
52974;SDS011;38839;45.186;5.720;2022-09-28T09:04:02;2.17;;;0.90;;
52974;SDS011;38839;45.186;5.720;2022-09-28T09:17:17;2.22;;;1.00;;
52974;SDS011;38839;45.186;5.720;2022-09-28T09:19:53;1.30;;;0.90;;
52974;SDS011;38839;45.186;5.720;2022-09-28T09:25:08;1.40;;;0.95;;
52974;SDS011;38839;45.186;5.720;2022-09-28T09:30:30;1.25;;;0.80;;
52974;SDS011;38839;45.186;5.720;2022-09-28T09:36:07;5.90;;;0.80;;
52974;SDS011;38839;45.186;5.720;2022-09-28T09:38:50;2.35;;;0.90;;
52974;SDS011;38839;45.186;5.720;2022-09-28T09:41:32;1.05;;;0.70;;
52974;SDS011;38839;45.186;5.720;2022-09-28T09:44:07;1.67;;;0.90;;
52974;SDS011;38839;45.186;5.720;2022-09-28T09:46:53;1.75;;;1.00;;
52974;SDS011;38839;45.186;5.720;2022-09-28T09:49:42;2.72;;;0.73;;
52974;SDS011;38839;45.186;5.720;2022-09-28T09:54:49;1.70;;;0.77;;
52974;SDS011;38839;45.186;5.720;2022-09-28T09:57:40;2.58;;;1.15;;
52974;SDS011;38839;45.186;5.720;2022-09-28T10:00:10;0.98;;;0.80;;
52974;SDS011;38839;45.186;5.720;2022-09-28T10:02:37;2.13;;;1.02;;
52974;SDS011;38839;45.186;5.720;2022-09-28T10:05:05;1.85;;;0.80;;
52974;SDS011;38839;45.186;5.720;2022-09-28T10:10:34;1.08;;;0.63;;
52974;SDS011;38839;45.186;5.720;2022-09-28T10:13:02;2.72;;;1.05;;
52974;SDS011;38839;45.186;5.720;2022-09-28T10:15:28;1.63;;;0.80;;
52974;SDS011;38839;45.186;5.720;2022-09-28T10:18:04;2.22;;;0.82;;
52974;SDS011;38839;45.186;5.720;2022-09-28T10:20:36;4.47;;;1.10;;
52974;SDS011;38839;45.186;5.720;2022-09-28T10:23:04;2.45;;;1.30;;
52974;SDS011;38839;45.186;5.720;2022-09-28T10:28:01;3.28;;;1.40;;
52974;SDS011;38839;45.186;5.720;2022-09-28T10:30:30;3.83;;;1.93;;
52974;SDS011;38839;45.186;5.720;2022-09-28T10:33:11;2.78;;;1.55;;
52974;SDS011;38839;45.186;5.720;2022-09-28T10:35:52;2.33;;;1.30;;
52974;SDS011;38839;45.186;5.720;2022-09-28T10:38:18;2.00;;;1.23;;
52974;SDS011;38839;45.186;5.720;2022-09-28T10:40:46;2.75;;;1.15;;
52974;SDS011;38839;45.186;5.720;2022-09-28T10:44:16;2.92;;;1.40;;
52974;SDS011;38839;45.186;5.720;2022-09-28T10:46:30;1.85;;;1.17;;
52974;SDS011;38839;45.186;5.720;2022-09-28T10:48:58;2.80;;;1.63;;
52974;SDS011;38839;45.186;5.720;2022-09-28T10:51:39;1.92;;;1.67;;
52974;SDS011;38839;45.186;5.720;2022-09-28T10:54:08;1.92;;;1.50;;
52974;SDS011;38839;45.186;5.720;2022-09-28T10:56:41;3.47;;;1.45;;
52974;SDS011;38839;45.186;5.720;2022-09-28T11:04:23;5.10;;;1.20;;
52974;SDS011;38839;45.186;5.720;2022-09-28T11:06:52;2.67;;;1.25;;
52974;SDS011;38839;45.186;5.720;2022-09-28T11:09:28;3.10;;;1.15;;
52974;SDS011;38839;45.186;5.720;2022-09-28T11:11:56;3.53;;;1.52;;
52974;SDS011;38839;45.186;5.720;2022-09-28T11:19:43;3.97;;;1.70;;
52974;SDS011;38839;45.186;5.720;2022-09-28T11:22:22;4.75;;;1.65;;
52974;SDS011;38839;45.186;5.720;2022-09-28T11:24:50;2.10;;;1.40;;
52974;SDS011;38839;45.186;5.720;2022-09-28T11:27:23;3.58;;;1.83;;
52974;SDS011;38839;45.186;5.720;2022-09-28T11:29:54;1.65;;;1.17;;
52974;SDS011;38839;45.186;5.720;2022-09-28T11:32:24;4.05;;;1.52;;
52974;SDS011;38839;45.186;5.720;2022-09-28T11:34:55;1.58;;;1.10;;
52974;SDS011;38839;45.186;5.720;2022-09-28T11:48:27;3.17;;;1.17;;
52974;SDS011;38839;45.186;5.720;2022-09-28T11:57:44;2.30;;;1.50;;
52974;SDS011;38839;45.186;5.720;2022-09-28T12:00:13;1.83;;;1.10;;
52974;SDS011;38839;45.186;5.720;2022-09-28T12:05:29;1.67;;;1.02;;
52974;SDS011;38839;45.186;5.720;2022-09-28T12:08:11;3.05;;;1.67;;
52974;SDS011;38839;45.186;5.720;2022-09-28T12:10:52;1.50;;;1.15;;
52974;SDS011;38839;45.186;5.720;2022-09-28T12:13:23;2.40;;;1.20;;
52974;SDS011;38839;45.186;5.720;2022-09-28T12:23:55;3.53;;;1.00;;
52974;SDS011;38839;45.186;5.720;2022-09-28T12:29:10;2.40;;;1.25;;
52974;SDS011;38839;45.186;5.720;2022-09-28T12:31:58;1.10;;;1.00;;
52974;SDS011;38839;45.186;5.720;2022-09-28T12:34:26;3.35;;;1.65;;
52974;SDS011;38839;45.186;5.720;2022-09-28T12:39:45;4.38;;;1.10;;
52974;SDS011;38839;45.186;5.720;2022-09-28T12:43:00;3.95;;;1.30;;
52974;SDS011;38839;45.186;5.720;2022-09-28T12:45:36;3.45;;;1.10;;
52974;SDS011;38839;45.186;5.720;2022-09-28T12:56:53;0.70;;;0.60;;
52974;SDS011;38839;45.186;5.720;2022-09-28T12:59:29;1.10;;;0.70;;
52974;SDS011;38839;45.186;5.720;2022-09-28T13:15:57;1.00;;;0.70;;
52974;SDS011;38839;45.186;5.720;2022-09-28T13:18:35;1.02;;;0.90;;
52974;SDS011;38839;45.186;5.720;2022-09-28T13:23:39;0.80;;;0.70;;
52974;SDS011;38839;45.186;5.720;2022-09-28T13:26:13;1.48;;;0.60;;
52974;SDS011;38839;45.186;5.720;2022-09-28T13:28:47;2.30;;;0.80;;
52974;SDS011;38839;45.186;5.720;2022-09-28T13:31:19;1.15;;;0.80;;
52974;SDS011;38839;45.186;5.720;2022-09-28T13:33:48;1.50;;;0.63;;
52974;SDS011;38839;45.186;5.720;2022-09-28T13:38:49;1.73;;;0.70;;
52974;SDS011;38839;45.186;5.720;2022-09-28T13:41:17;2.08;;;0.70;;
52974;SDS011;38839;45.186;5.720;2022-09-28T13:52:02;0.88;;;0.55;;
52974;SDS011;38839;45.186;5.720;2022-09-28T14:00:06;0.88;;;0.70;;
52974;SDS011;38839;45.186;5.720;2022-09-28T14:02:46;0.75;;;0.60;;
52974;SDS011;38839;45.186;5.720;2022-09-28T14:07:56;0.63;;;0.50;;
52974;SDS011;38839;45.186;5.720;2022-09-28T14:16:18;1.42;;;1.02;;
52974;SDS011;38839;45.186;5.720;2022-09-28T14:19:11;0.70;;;0.45;;
52974;SDS011;38839;45.186;5.720;2022-09-28T14:21:46;3.22;;;2.28;;
52974;SDS011;38839;45.186;5.720;2022-09-28T14:25:06;2.08;;;1.35;;
52974;SDS011;38839;45.186;5.720;2022-09-28T14:30:25;0.50;;;0.50;;
52974;SDS011;38839;45.186;5.720;2022-09-28T14:32:58;1.08;;;0.60;;
52974;SDS011;38839;45.186;5.720;2022-09-28T14:35:28;1.55;;;0.70;;
52974;SDS011;38839;45.186;5.720;2022-09-28T14:37:58;1.15;;;0.77;;
52974;SDS011;38839;45.186;5.720;2022-09-28T14:40:55;2.15;;;0.68;;
52974;SDS011;38839;45.186;5.720;2022-09-28T15:09:31;1.73;;;0.90;;
52974;SDS011;38839;45.186;5.720;2022-09-28T15:12:04;4.10;;;1.40;;
52974;SDS011;38839;45.186;5.720;2022-09-28T15:14:46;1.60;;;1.08;;
52974;SDS011;38839;45.186;5.720;2022-09-28T15:17:18;1.92;;;1.02;;
52974;SDS011;38839;45.186;5.720;2022-09-28T15:22:17;1.95;;;0.80;;
52974;SDS011;38839;45.186;5.720;2022-09-28T15:24:54;1.42;;;0.47;;
52974;SDS011;38839;45.186;5.720;2022-09-28T15:27:21;2.08;;;0.80;;
52974;SDS011;38839;45.186;5.720;2022-09-28T15:29:57;0.82;;;0.40;;
52974;SDS011;38839;45.186;5.720;2022-09-28T15:32:24;0.20;;;0.20;;
52974;SDS011;38839;45.186;5.720;2022-09-28T15:34:50;1.45;;;0.32;;
52974;SDS011;38839;45.186;5.720;2022-09-28T15:37:37;1.05;;;0.30;;
52974;SDS011;38839;45.186;5.720;2022-09-28T15:40:03;1.00;;;0.30;;
52974;SDS011;38839;45.186;5.720;2022-09-28T15:42:40;2.90;;;0.30;;
52974;SDS011;38839;45.186;5.720;2022-09-28T15:47:37;0.68;;;0.30;;
52974;SDS011;38839;45.186;5.720;2022-09-28T15:50:05;0.98;;;0.30;;
52974;SDS011;38839;45.186;5.720;2022-09-28T15:52:51;0.35;;;0.20;;
52974;SDS011;38839;45.186;5.720;2022-09-28T15:55:19;0.73;;;0.20;;
52974;SDS011;38839;45.186;5.720;2022-09-28T15:57:49;0.75;;;0.20;;
52974;SDS011;38839;45.186;5.720;2022-09-28T16:00:29;0.57;;;0.20;;
52974;SDS011;38839;45.186;5.720;2022-09-28T16:05:45;0.60;;;0.30;;
52974;SDS011;38839;45.186;5.720;2022-09-28T16:08:16;0.47;;;0.30;;
52974;SDS011;38839;45.186;5.720;2022-09-28T16:13:35;0.60;;;0.52;;
52974;SDS011;38839;45.186;5.720;2022-09-28T16:16:12;2.05;;;0.90;;
52974;SDS011;38839;45.186;5.720;2022-09-28T16:18:40;2.28;;;1.10;;
52974;SDS011;38839;45.186;5.720;2022-09-28T16:21:27;2.08;;;1.33;;
52974;SDS011;38839;45.186;5.720;2022-09-28T16:24:02;2.40;;;1.05;;
52974;SDS011;38839;45.186;5.720;2022-09-28T16:26:35;1.75;;;0.80;;
52974;SDS011;38839;45.186;5.720;2022-09-28T16:31:51;1.80;;;0.80;;
52974;SDS011;38839;45.186;5.720;2022-09-28T16:34:22;3.10;;;1.40;;
52974;SDS011;38839;45.186;5.720;2022-09-28T16:36:50;1.58;;;0.70;;
52974;SDS011;38839;45.186;5.720;2022-09-28T16:39:15;2.80;;;0.60;;
52974;SDS011;38839;45.186;5.720;2022-09-28T16:41:51;0.43;;;0.30;;
52974;SDS011;38839;45.186;5.720;2022-09-28T16:44:24;1.75;;;0.85;;
52974;SDS011;38839;45.186;5.720;2022-09-28T16:46:52;0.73;;;0.40;;
52974;SDS011;38839;45.186;5.720;2022-09-28T16:49:19;1.27;;;0.80;;
52974;SDS011;38839;45.186;5.720;2022-09-28T16:51:47;1.27;;;1.00;;
52974;SDS011;38839;45.186;5.720;2022-09-28T16:54:13;4.88;;;1.17;;
52974;SDS011;38839;45.186;5.720;2022-09-28T16:57:02;0.75;;;0.60;;
52974;SDS011;38839;45.186;5.720;2022-09-28T16:59:29;3.03;;;0.90;;
52974;SDS011;38839;45.186;5.720;2022-09-28T17:01:55;3.35;;;0.98;;
52974;SDS011;38839;45.186;5.720;2022-09-28T17:04:21;6.85;;;0.98;;
52974;SDS011;38839;45.186;5.720;2022-09-28T17:06:48;1.23;;;0.80;;
52974;SDS011;38839;45.186;5.720;2022-09-28T17:09:14;3.72;;;0.90;;
52974;SDS011;38839;45.186;5.720;2022-09-28T17:11:40;3.75;;;1.00;;
52974;SDS011;38839;45.186;5.720;2022-09-28T17:14:05;2.53;;;0.70;;
52974;SDS011;38839;45.186;5.720;2022-09-28T17:16:31;2.83;;;0.85;;
52974;SDS011;38839;45.186;5.720;2022-09-28T17:18:57;1.15;;;0.70;;
52974;SDS011;38839;45.186;5.720;2022-09-28T17:21:24;1.00;;;0.68;;
52974;SDS011;38839;45.186;5.720;2022-09-28T17:23:50;2.75;;;0.95;;
52974;SDS011;38839;45.186;5.720;2022-09-28T17:28:51;1.42;;;0.73;;
52974;SDS011;38839;45.186;5.720;2022-09-28T17:31:17;1.10;;;0.70;;
52974;SDS011;38839;45.186;5.720;2022-09-28T17:33:42;1.85;;;0.90;;
52974;SDS011;38839;45.186;5.720;2022-09-28T17:36:08;2.70;;;0.80;;
52974;SDS011;38839;45.186;5.720;2022-09-28T17:38:38;3.17;;;0.95;;
52974;SDS011;38839;45.186;5.720;2022-09-28T17:41:07;4.90;;;3.08;;
52974;SDS011;38839;45.186;5.720;2022-09-28T17:43:35;2.35;;;1.05;;
52974;SDS011;38839;45.186;5.720;2022-09-28T17:46:00;1.52;;;0.65;;
52974;SDS011;38839;45.186;5.720;2022-09-28T17:48:27;2.35;;;0.50;;
52974;SDS011;38839;45.186;5.720;2022-09-28T17:50:52;1.60;;;0.80;;
52974;SDS011;38839;45.186;5.720;2022-09-28T17:53:18;1.23;;;0.65;;
52974;SDS011;38839;45.186;5.720;2022-09-28T17:55:43;2.90;;;1.08;;
52974;SDS011;38839;45.186;5.720;2022-09-28T17:58:16;1.50;;;0.90;;
52974;SDS011;38839;45.186;5.720;2022-09-28T18:00:46;2.88;;;1.02;;
52974;SDS011;38839;45.186;5.720;2022-09-28T18:03:16;2.28;;;0.82;;
52974;SDS011;38839;45.186;5.720;2022-09-28T18:05:43;1.33;;;1.10;;
52974;SDS011;38839;45.186;5.720;2022-09-28T18:08:13;3.75;;;1.00;;
52974;SDS011;38839;45.186;5.720;2022-09-28T18:10:41;2.20;;;1.23;;
52974;SDS011;38839;45.186;5.720;2022-09-28T18:13:06;2.20;;;1.40;;
52974;SDS011;38839;45.186;5.720;2022-09-28T18:15:32;2.92;;;1.35;;
52974;SDS011;38839;45.186;5.720;2022-09-28T18:17:57;1.52;;;1.00;;
52974;SDS011;38839;45.186;5.720;2022-09-28T18:20:23;3.63;;;1.10;;
52974;SDS011;38839;45.186;5.720;2022-09-28T18:22:48;1.73;;;1.15;;
52974;SDS011;38839;45.186;5.720;2022-09-28T18:25:14;2.17;;;1.00;;
52974;SDS011;38839;45.186;5.720;2022-09-28T18:27:39;1.90;;;0.90;;
52974;SDS011;38839;45.186;5.720;2022-09-28T18:30:04;3.50;;;1.00;;
52974;SDS011;38839;45.186;5.720;2022-09-28T18:32:34;1.67;;;1.00;;
52974;SDS011;38839;45.186;5.720;2022-09-28T18:35:03;1.30;;;1.17;;
52974;SDS011;38839;45.186;5.720;2022-09-28T18:37:34;1.67;;;1.23;;
52974;SDS011;38839;45.186;5.720;2022-09-28T18:40:00;2.60;;;1.10;;
52974;SDS011;38839;45.186;5.720;2022-09-28T18:42:26;1.80;;;1.10;;
52974;SDS011;38839;45.186;5.720;2022-09-28T18:44:51;2.75;;;1.15;;